sensor_id;sensor_type;location;lat;lon;timestamp;temperature;humidity
9951;DHT22;24074;49.254;6.702;2024-03-06T00:00:06;2.20;99.90
9951;DHT22;24074;49.254;6.702;2024-03-06T00:02:34;2.30;99.90
9951;DHT22;24074;49.254;6.702;2024-03-06T00:05:00;2.40;99.90
9951;DHT22;24074;49.254;6.702;2024-03-06T00:07:25;2.30;99.90
9951;DHT22;24074;49.254;6.702;2024-03-06T00:09:51;2.20;99.90
9951;DHT22;24074;49.254;6.702;2024-03-06T00:12:18;2.20;99.90
9951;DHT22;24074;49.254;6.702;2024-03-06T00:14:44;2.30;99.90
9951;DHT22;24074;49.254;6.702;2024-03-06T00:17:12;2.40;99.90
9951;DHT22;24074;49.254;6.702;2024-03-06T00:19:37;2.40;99.90
9951;DHT22;24074;49.254;6.702;2024-03-06T00:22:03;2.50;99.90
9951;DHT22;24074;49.254;6.702;2024-03-06T00:24:29;2.60;99.90
9951;DHT22;24074;49.254;6.702;2024-03-06T00:26:54;2.50;99.90
9951;DHT22;24074;49.254;6.702;2024-03-06T00:29:20;2.50;99.90
9951;DHT22;24074;49.254;6.702;2024-03-06T00:31:46;2.50;99.90
9951;DHT22;24074;49.254;6.702;2024-03-06T00:34:12;2.50;99.90
9951;DHT22;24074;49.254;6.702;2024-03-06T00:36:40;2.50;99.90
9951;DHT22;24074;49.254;6.702;2024-03-06T00:39:06;2.50;99.90
9951;DHT22;24074;49.254;6.702;2024-03-06T00:41:34;2.50;99.90
9951;DHT22;24074;49.254;6.702;2024-03-06T00:43:59;2.50;99.90
9951;DHT22;24074;49.254;6.702;2024-03-06T00:46:25;2.50;99.90
9951;DHT22;24074;49.254;6.702;2024-03-06T00:48:50;2.50;99.90
9951;DHT22;24074;49.254;6.702;2024-03-06T00:51:16;2.50;99.90
9951;DHT22;24074;49.254;6.702;2024-03-06T00:53:42;2.50;99.90
9951;DHT22;24074;49.254;6.702;2024-03-06T00:56:07;2.60;99.90
9951;DHT22;24074;49.254;6.702;2024-03-06T00:58:33;2.60;99.90
9951;DHT22;24074;49.254;6.702;2024-03-06T01:00:59;2.70;99.90
9951;DHT22;24074;49.254;6.702;2024-03-06T01:03:24;2.70;99.90
9951;DHT22;24074;49.254;6.702;2024-03-06T01:05:50;2.70;99.90
9951;DHT22;24074;49.254;6.702;2024-03-06T01:08:17;2.70;99.90
9951;DHT22;24074;49.254;6.702;2024-03-06T01:10:43;2.70;99.90
9951;DHT22;24074;49.254;6.702;2024-03-06T01:13:09;2.70;99.90
9951;DHT22;24074;49.254;6.702;2024-03-06T01:15:38;2.60;99.90
9951;DHT22;24074;49.254;6.702;2024-03-06T01:18:04;2.60;99.90
9951;DHT22;24074;49.254;6.702;2024-03-06T01:20:30;2.60;99.90
9951;DHT22;24074;49.254;6.702;2024-03-06T01:22:55;2.50;99.90
9951;DHT22;24074;49.254;6.702;2024-03-06T01:25:21;2.50;99.90
9951;DHT22;24074;49.254;6.702;2024-03-06T01:27:48;2.50;99.90
9951;DHT22;24074;49.254;6.702;2024-03-06T01:30:14;2.50;99.90
9951;DHT22;24074;49.254;6.702;2024-03-06T01:32:40;2.50;99.90
9951;DHT22;24074;49.254;6.702;2024-03-06T01:35:06;2.30;99.90
9951;DHT22;24074;49.254;6.702;2024-03-06T01:37:32;2.20;99.90
9951;DHT22;24074;49.254;6.702;2024-03-06T01:39:58;2.20;99.90
9951;DHT22;24074;49.254;6.702;2024-03-06T01:42:24;2.20;99.90
9951;DHT22;24074;49.254;6.702;2024-03-06T01:44:49;2.30;99.90
9951;DHT22;24074;49.254;6.702;2024-03-06T01:47:15;2.30;99.90
9951;DHT22;24074;49.254;6.702;2024-03-06T01:49:41;2.30;99.90
9951;DHT22;24074;49.254;6.702;2024-03-06T01:52:09;2.30;99.90
9951;DHT22;24074;49.254;6.702;2024-03-06T01:54:37;2.10;99.90
9951;DHT22;24074;49.254;6.702;2024-03-06T01:57:04;1.90;99.90
9951;DHT22;24074;49.254;6.702;2024-03-06T01:59:32;1.80;99.90
9951;DHT22;24074;49.254;6.702;2024-03-06T02:01:57;1.70;99.90
9951;DHT22;24074;49.254;6.702;2024-03-06T02:04:24;1.60;99.90
9951;DHT22;24074;49.254;6.702;2024-03-06T02:06:52;1.60;99.90
9951;DHT22;24074;49.254;6.702;2024-03-06T02:09:17;1.60;99.90
9951;DHT22;24074;49.254;6.702;2024-03-06T02:11:45;1.50;99.90
9951;DHT22;24074;49.254;6.702;2024-03-06T02:14:10;1.50;99.90
9951;DHT22;24074;49.254;6.702;2024-03-06T02:16:37;1.50;99.90
9951;DHT22;24074;49.254;6.702;2024-03-06T02:19:05;1.60;99.90
9951;DHT22;24074;49.254;6.702;2024-03-06T02:21:30;1.50;99.90
9951;DHT22;24074;49.254;6.702;2024-03-06T02:23:56;1.50;99.90
9951;DHT22;24074;49.254;6.702;2024-03-06T02:26:22;1.40;99.90
9951;DHT22;24074;49.254;6.702;2024-03-06T02:31:18;1.40;99.90
9951;DHT22;24074;49.254;6.702;2024-03-06T02:33:47;1.30;99.90
9951;DHT22;24074;49.254;6.702;2024-03-06T02:36:14;1.20;99.90
9951;DHT22;24074;49.254;6.702;2024-03-06T02:38:41;1.20;99.90
9951;DHT22;24074;49.254;6.702;2024-03-06T02:41:06;1.20;99.90
9951;DHT22;24074;49.254;6.702;2024-03-06T02:43:35;1.20;99.90
9951;DHT22;24074;49.254;6.702;2024-03-06T02:46:01;1.20;99.90
9951;DHT22;24074;49.254;6.702;2024-03-06T02:48:26;1.20;99.90
9951;DHT22;24074;49.254;6.702;2024-03-06T02:50:52;1.30;99.90
9951;DHT22;24074;49.254;6.702;2024-03-06T02:53:18;1.30;99.90
9951;DHT22;24074;49.254;6.702;2024-03-06T02:55:43;1.30;99.90
9951;DHT22;24074;49.254;6.702;2024-03-06T02:58:09;1.30;99.90
9951;DHT22;24074;49.254;6.702;2024-03-06T03:00:34;1.20;99.90
9951;DHT22;24074;49.254;6.702;2024-03-06T03:03:00;1.30;99.90
9951;DHT22;24074;49.254;6.702;2024-03-06T03:05:25;1.20;99.90
9951;DHT22;24074;49.254;6.702;2024-03-06T03:07:51;1.30;99.90
9951;DHT22;24074;49.254;6.702;2024-03-06T03:10:17;1.30;99.90
9951;DHT22;24074;49.254;6.702;2024-03-06T03:12:42;1.40;99.90
9951;DHT22;24074;49.254;6.702;2024-03-06T03:15:08;1.40;99.90
9951;DHT22;24074;49.254;6.702;2024-03-06T03:17:37;1.40;99.90
9951;DHT22;24074;49.254;6.702;2024-03-06T03:20:03;1.40;99.90
9951;DHT22;24074;49.254;6.702;2024-03-06T03:22:39;1.50;99.90
9951;DHT22;24074;49.254;6.702;2024-03-06T03:25:09;1.60;99.90
9951;DHT22;24074;49.254;6.702;2024-03-06T03:27:36;1.50;99.90
9951;DHT22;24074;49.254;6.702;2024-03-06T03:30:02;1.60;99.90
9951;DHT22;24074;49.254;6.702;2024-03-06T03:32:28;1.60;99.90
9951;DHT22;24074;49.254;6.702;2024-03-06T03:34:54;1.50;99.90
9951;DHT22;24074;49.254;6.702;2024-03-06T03:37:19;1.60;99.90
9951;DHT22;24074;49.254;6.702;2024-03-06T03:39:45;1.60;99.90
9951;DHT22;24074;49.254;6.702;2024-03-06T03:42:11;1.70;99.90
9951;DHT22;24074;49.254;6.702;2024-03-06T03:44:37;1.70;99.90
9951;DHT22;24074;49.254;6.702;2024-03-06T03:47:02;1.70;99.90
9951;DHT22;24074;49.254;6.702;2024-03-06T03:49:28;1.70;99.90
9951;DHT22;24074;49.254;6.702;2024-03-06T03:51:53;1.60;99.90
9951;DHT22;24074;49.254;6.702;2024-03-06T03:54:19;1.70;99.90
9951;DHT22;24074;49.254;6.702;2024-03-06T03:56:45;1.70;99.90
9951;DHT22;24074;49.254;6.702;2024-03-06T03:59:10;1.80;99.90
9951;DHT22;24074;49.254;6.702;2024-03-06T04:01:36;1.60;99.90
9951;DHT22;24074;49.254;6.702;2024-03-06T04:04:01;1.50;99.90
9951;DHT22;24074;49.254;6.702;2024-03-06T04:06:27;1.40;99.90
9951;DHT22;24074;49.254;6.702;2024-03-06T04:08:52;1.30;99.90
9951;DHT22;24074;49.254;6.702;2024-03-06T04:11:18;1.40;99.90
9951;DHT22;24074;49.254;6.702;2024-03-06T04:13:44;1.30;99.90
9951;DHT22;24074;49.254;6.702;2024-03-06T04:16:09;1.20;99.90
9951;DHT22;24074;49.254;6.702;2024-03-06T04:18:35;1.10;99.90
9951;DHT22;24074;49.254;6.702;2024-03-06T04:21:07;1.10;99.90
9951;DHT22;24074;49.254;6.702;2024-03-06T04:23:33;1.10;99.90
9951;DHT22;24074;49.254;6.702;2024-03-06T04:26:01;1.00;99.90
9951;DHT22;24074;49.254;6.702;2024-03-06T04:28:27;1.00;99.90
9951;DHT22;24074;49.254;6.702;2024-03-06T04:30:53;0.90;99.90
9951;DHT22;24074;49.254;6.702;2024-03-06T04:33:19;0.90;99.90
9951;DHT22;24074;49.254;6.702;2024-03-06T04:35:45;0.90;99.90
9951;DHT22;24074;49.254;6.702;2024-03-06T04:38:11;0.90;99.90
9951;DHT22;24074;49.254;6.702;2024-03-06T04:40:36;0.90;99.90
9951;DHT22;24074;49.254;6.702;2024-03-06T04:43:02;0.80;99.90
9951;DHT22;24074;49.254;6.702;2024-03-06T04:45:27;1.00;99.90
9951;DHT22;24074;49.254;6.702;2024-03-06T04:47:56;1.00;99.90
9951;DHT22;24074;49.254;6.702;2024-03-06T04:50:22;0.90;99.90
9951;DHT22;24074;49.254;6.702;2024-03-06T04:52:47;0.80;99.90
9951;DHT22;24074;49.254;6.702;2024-03-06T04:55:13;0.70;99.90
9951;DHT22;24074;49.254;6.702;2024-03-06T04:57:43;0.70;99.90
9951;DHT22;24074;49.254;6.702;2024-03-06T05:00:10;0.60;99.90
9951;DHT22;24074;49.254;6.702;2024-03-06T05:02:36;0.60;99.90
9951;DHT22;24074;49.254;6.702;2024-03-06T05:05:03;0.50;99.90
9951;DHT22;24074;49.254;6.702;2024-03-06T05:07:30;0.60;99.90
9951;DHT22;24074;49.254;6.702;2024-03-06T05:09:56;0.70;99.90
9951;DHT22;24074;49.254;6.702;2024-03-06T05:12:25;0.80;99.90
9951;DHT22;24074;49.254;6.702;2024-03-06T05:14:52;0.90;99.90
9951;DHT22;24074;49.254;6.702;2024-03-06T05:17:18;0.90;99.90
9951;DHT22;24074;49.254;6.702;2024-03-06T05:19:44;0.80;99.90
9951;DHT22;24074;49.254;6.702;2024-03-06T05:22:10;0.70;99.90
9951;DHT22;24074;49.254;6.702;2024-03-06T05:24:37;0.50;99.90
9951;DHT22;24074;49.254;6.702;2024-03-06T05:27:03;0.50;99.90
9951;DHT22;24074;49.254;6.702;2024-03-06T05:29:29;0.40;99.90
9951;DHT22;24074;49.254;6.702;2024-03-06T05:31:54;0.40;99.90
9951;DHT22;24074;49.254;6.702;2024-03-06T05:34:21;0.30;99.90
9951;DHT22;24074;49.254;6.702;2024-03-06T05:36:47;0.20;99.90
9951;DHT22;24074;49.254;6.702;2024-03-06T05:39:13;0.40;99.90
9951;DHT22;24074;49.254;6.702;2024-03-06T05:41:40;0.60;99.90
9951;DHT22;24074;49.254;6.702;2024-03-06T05:44:06;0.70;99.90
9951;DHT22;24074;49.254;6.702;2024-03-06T05:46:32;0.70;99.90
9951;DHT22;24074;49.254;6.702;2024-03-06T05:48:58;0.50;99.90
9951;DHT22;24074;49.254;6.702;2024-03-06T05:51:23;0.30;99.90
9951;DHT22;24074;49.254;6.702;2024-03-06T05:53:49;0.20;99.90
9951;DHT22;24074;49.254;6.702;2024-03-06T05:56:14;0.30;99.90
9951;DHT22;24074;49.254;6.702;2024-03-06T05:58:40;0.20;99.90
9951;DHT22;24074;49.254;6.702;2024-03-06T06:01:05;0.20;99.90
9951;DHT22;24074;49.254;6.702;2024-03-06T06:03:31;0.10;99.90
9951;DHT22;24074;49.254;6.702;2024-03-06T06:05:59;0.00;99.90
9951;DHT22;24074;49.254;6.702;2024-03-06T06:08:25;-0.10;99.90
9951;DHT22;24074;49.254;6.702;2024-03-06T06:10:51;-0.10;99.90
9951;DHT22;24074;49.254;6.702;2024-03-06T06:13:20;0.00;99.90
9951;DHT22;24074;49.254;6.702;2024-03-06T06:15:47;0.40;99.90
9951;DHT22;24074;49.254;6.702;2024-03-06T06:18:13;0.60;99.90
9951;DHT22;24074;49.254;6.702;2024-03-06T06:20:41;0.60;99.90
9951;DHT22;24074;49.254;6.702;2024-03-06T06:23:06;0.50;99.90
9951;DHT22;24074;49.254;6.702;2024-03-06T06:25:32;0.40;99.90
9951;DHT22;24074;49.254;6.702;2024-03-06T06:27:57;0.30;99.90
9951;DHT22;24074;49.254;6.702;2024-03-06T06:30:23;0.20;99.90
9951;DHT22;24074;49.254;6.702;2024-03-06T06:32:48;0.20;99.90
9951;DHT22;24074;49.254;6.702;2024-03-06T06:35:14;0.40;99.90
9951;DHT22;24074;49.254;6.702;2024-03-06T06:37:39;0.70;99.90
9951;DHT22;24074;49.254;6.702;2024-03-06T06:40:07;0.90;99.90
9951;DHT22;24074;49.254;6.702;2024-03-06T06:42:33;1.00;99.90
9951;DHT22;24074;49.254;6.702;2024-03-06T06:44:59;1.20;99.90
9951;DHT22;24074;49.254;6.702;2024-03-06T06:47:26;1.20;99.90
9951;DHT22;24074;49.254;6.702;2024-03-06T06:49:52;1.20;99.90
9951;DHT22;24074;49.254;6.702;2024-03-06T06:52:18;1.20;99.90
9951;DHT22;24074;49.254;6.702;2024-03-06T06:54:44;1.40;99.90
9951;DHT22;24074;49.254;6.702;2024-03-06T06:57:10;1.50;99.90
9951;DHT22;24074;49.254;6.702;2024-03-06T06:59:35;1.80;99.90
9951;DHT22;24074;49.254;6.702;2024-03-06T07:02:02;2.10;99.90
9951;DHT22;24074;49.254;6.702;2024-03-06T07:04:28;2.40;99.90
9951;DHT22;24074;49.254;6.702;2024-03-06T07:06:54;2.70;99.90
9951;DHT22;24074;49.254;6.702;2024-03-06T07:09:20;3.00;99.90
9951;DHT22;24074;49.254;6.702;2024-03-06T07:11:45;3.00;99.90
9951;DHT22;24074;49.254;6.702;2024-03-06T07:14:14;3.20;99.90
9951;DHT22;24074;49.254;6.702;2024-03-06T07:16:44;3.50;99.90
9951;DHT22;24074;49.254;6.702;2024-03-06T07:19:11;3.80;99.90
9951;DHT22;24074;49.254;6.702;2024-03-06T07:21:39;4.30;99.90
9951;DHT22;24074;49.254;6.702;2024-03-06T07:24:05;4.70;99.90
9951;DHT22;24074;49.254;6.702;2024-03-06T07:26:34;4.90;99.90
9951;DHT22;24074;49.254;6.702;2024-03-06T07:28:59;4.60;99.90
9951;DHT22;24074;49.254;6.702;2024-03-06T07:31:25;5.00;99.90
9951;DHT22;24074;49.254;6.702;2024-03-06T07:33:51;5.50;99.90
9951;DHT22;24074;49.254;6.702;2024-03-06T07:36:20;5.80;99.90
9951;DHT22;24074;49.254;6.702;2024-03-06T07:38:50;6.40;99.90
9951;DHT22;24074;49.254;6.702;2024-03-06T07:41:15;7.00;99.90
9951;DHT22;24074;49.254;6.702;2024-03-06T07:43:41;7.30;99.90
9951;DHT22;24074;49.254;6.702;2024-03-06T07:46:06;8.30;99.90
9951;DHT22;24074;49.254;6.702;2024-03-06T07:48:36;8.60;99.90
9951;DHT22;24074;49.254;6.702;2024-03-06T07:51:02;8.70;99.90
9951;DHT22;24074;49.254;6.702;2024-03-06T07:53:28;8.40;99.90
9951;DHT22;24074;49.254;6.702;2024-03-06T07:55:54;8.20;99.90
9951;DHT22;24074;49.254;6.702;2024-03-06T07:58:19;8.20;99.90
9951;DHT22;24074;49.254;6.702;2024-03-06T08:00:46;8.00;99.90
9951;DHT22;24074;49.254;6.702;2024-03-06T08:03:12;7.60;99.90
9951;DHT22;24074;49.254;6.702;2024-03-06T08:05:39;7.40;99.90
9951;DHT22;24074;49.254;6.702;2024-03-06T08:08:04;8.40;99.90
9951;DHT22;24074;49.254;6.702;2024-03-06T08:10:30;9.30;99.90
9951;DHT22;24074;49.254;6.702;2024-03-06T08:12:56;8.70;99.90
9951;DHT22;24074;49.254;6.702;2024-03-06T08:15:22;8.70;99.90
9951;DHT22;24074;49.254;6.702;2024-03-06T08:17:49;8.10;99.90
9951;DHT22;24074;49.254;6.702;2024-03-06T08:20:15;8.10;99.90
9951;DHT22;24074;49.254;6.702;2024-03-06T08:22:41;8.10;99.90
9951;DHT22;24074;49.254;6.702;2024-03-06T08:25:08;8.60;99.90
9951;DHT22;24074;49.254;6.702;2024-03-06T08:27:35;9.30;99.90
9951;DHT22;24074;49.254;6.702;2024-03-06T08:30:05;9.70;99.90
9951;DHT22;24074;49.254;6.702;2024-03-06T08:32:31;10.30;99.90
9951;DHT22;24074;49.254;6.702;2024-03-06T08:35:09;11.00;99.90
9951;DHT22;24074;49.254;6.702;2024-03-06T08:37:41;12.00;99.90
9951;DHT22;24074;49.254;6.702;2024-03-06T08:40:08;12.80;99.90
9951;DHT22;24074;49.254;6.702;2024-03-06T08:42:43;13.00;99.90
9951;DHT22;24074;49.254;6.702;2024-03-06T08:45:09;13.30;99.90
9951;DHT22;24074;49.254;6.702;2024-03-06T08:47:36;13.30;99.90
9951;DHT22;24074;49.254;6.702;2024-03-06T08:50:02;13.50;99.90
9951;DHT22;24074;49.254;6.702;2024-03-06T08:52:28;14.60;99.90
9951;DHT22;24074;49.254;6.702;2024-03-06T08:54:54;15.80;99.90
9951;DHT22;24074;49.254;6.702;2024-03-06T08:57:19;15.60;99.90
9951;DHT22;24074;49.254;6.702;2024-03-06T08:59:47;16.80;99.90
9951;DHT22;24074;49.254;6.702;2024-03-06T09:02:16;17.60;99.90
9951;DHT22;24074;49.254;6.702;2024-03-06T09:04:46;18.50;99.90
9951;DHT22;24074;49.254;6.702;2024-03-06T09:07:12;20.20;96.60
9951;DHT22;24074;49.254;6.702;2024-03-06T09:09:39;20.40;95.00
9951;DHT22;24074;49.254;6.702;2024-03-06T09:12:09;21.20;91.40
9951;DHT22;24074;49.254;6.702;2024-03-06T09:14:36;20.60;91.80
9951;DHT22;24074;49.254;6.702;2024-03-06T09:17:02;20.90;89.10
9951;DHT22;24074;49.254;6.702;2024-03-06T09:19:28;21.50;88.60
9951;DHT22;24074;49.254;6.702;2024-03-06T09:21:54;21.70;83.80
9951;DHT22;24074;49.254;6.702;2024-03-06T09:24:21;23.00;81.40
9951;DHT22;24074;49.254;6.702;2024-03-06T09:26:48;23.20;77.40
9951;DHT22;24074;49.254;6.702;2024-03-06T09:29:14;21.50;76.50
9951;DHT22;24074;49.254;6.702;2024-03-06T09:31:40;21.60;74.00
9951;DHT22;24074;49.254;6.702;2024-03-06T09:34:06;20.60;79.60
9951;DHT22;24074;49.254;6.702;2024-03-06T09:36:31;20.90;78.20
9951;DHT22;24074;49.254;6.702;2024-03-06T09:38:58;22.40;76.50
9951;DHT22;24074;49.254;6.702;2024-03-06T09:41:24;23.80;67.50
9951;DHT22;24074;49.254;6.702;2024-03-06T09:43:50;23.00;70.00
9951;DHT22;24074;49.254;6.702;2024-03-06T09:46:17;23.40;68.50
9951;DHT22;24074;49.254;6.702;2024-03-06T09:48:47;22.80;65.20
9951;DHT22;24074;49.254;6.702;2024-03-06T09:51:14;21.80;66.60
9951;DHT22;24074;49.254;6.702;2024-03-06T09:53:40;21.10;68.50
9951;DHT22;24074;49.254;6.702;2024-03-06T09:56:07;20.90;69.40
9951;DHT22;24074;49.254;6.702;2024-03-06T09:58:34;20.70;70.50
9951;DHT22;24074;49.254;6.702;2024-03-06T10:01:01;20.90;70.60
9951;DHT22;24074;49.254;6.702;2024-03-06T10:03:28;20.90;71.10
9951;DHT22;24074;49.254;6.702;2024-03-06T10:05:54;21.60;68.50
9951;DHT22;24074;49.254;6.702;2024-03-06T10:08:21;22.90;69.40
9951;DHT22;24074;49.254;6.702;2024-03-06T10:10:50;23.80;66.80
9951;DHT22;24074;49.254;6.702;2024-03-06T10:13:16;25.80;60.30
9951;DHT22;24074;49.254;6.702;2024-03-06T10:18:21;27.40;55.00
9951;DHT22;24074;49.254;6.702;2024-03-06T10:20:47;27.80;51.30
9951;DHT22;24074;49.254;6.702;2024-03-06T10:23:13;27.60;49.60
9951;DHT22;24074;49.254;6.702;2024-03-06T10:25:43;26.50;50.60
9951;DHT22;24074;49.254;6.702;2024-03-06T10:28:11;27.20;48.80
9951;DHT22;24074;49.254;6.702;2024-03-06T10:30:41;27.30;46.60
9951;DHT22;24074;49.254;6.702;2024-03-06T10:33:08;27.10;46.30
9951;DHT22;24074;49.254;6.702;2024-03-06T10:35:37;26.20;46.40
9951;DHT22;24074;49.254;6.702;2024-03-06T10:38:04;24.30;48.90
9951;DHT22;24074;49.254;6.702;2024-03-06T10:40:34;24.30;49.90
9951;DHT22;24074;49.254;6.702;2024-03-06T10:43:01;25.00;48.90
9951;DHT22;24074;49.254;6.702;2024-03-06T10:48:10;24.60;47.00
9951;DHT22;24074;49.254;6.702;2024-03-06T10:50:41;22.60;51.40
9951;DHT22;24074;49.254;6.702;2024-03-06T10:53:14;23.10;53.80
9951;DHT22;24074;49.254;6.702;2024-03-06T10:55:42;23.80;50.30
9951;DHT22;24074;49.254;6.702;2024-03-06T10:58:10;22.90;49.60
9951;DHT22;24074;49.254;6.702;2024-03-06T11:00:41;20.10;51.20
9951;DHT22;24074;49.254;6.702;2024-03-06T11:03:09;18.30;54.30
9951;DHT22;24074;49.254;6.702;2024-03-06T11:05:41;16.90;57.40
9951;DHT22;24074;49.254;6.702;2024-03-06T11:08:11;15.30;60.80
9951;DHT22;24074;49.254;6.702;2024-03-06T11:10:41;15.10;65.10
9951;DHT22;24074;49.254;6.702;2024-03-06T11:15:46;14.50;69.50
9951;DHT22;24074;49.254;6.702;2024-03-06T11:21:00;12.90;74.50
9951;DHT22;24074;49.254;6.702;2024-03-06T11:26:42;12.70;80.80
9951;DHT22;24074;49.254;6.702;2024-03-06T11:29:08;12.50;83.10
9951;DHT22;24074;49.254;6.702;2024-03-06T11:31:35;12.80;82.30
9951;DHT22;24074;49.254;6.702;2024-03-06T11:34:04;12.90;82.50
9951;DHT22;24074;49.254;6.702;2024-03-06T11:36:30;13.10;85.60
9951;DHT22;24074;49.254;6.702;2024-03-06T11:39:00;13.60;86.60
9951;DHT22;24074;49.254;6.702;2024-03-06T11:44:14;13.70;80.30
9951;DHT22;24074;49.254;6.702;2024-03-06T11:49:19;14.00;81.20
9951;DHT22;24074;49.254;6.702;2024-03-06T11:51:54;14.30;81.90
9951;DHT22;24074;49.254;6.702;2024-03-06T11:54:20;14.90;82.10
9951;DHT22;24074;49.254;6.702;2024-03-06T11:56:50;14.80;81.60
9951;DHT22;24074;49.254;6.702;2024-03-06T11:59:17;14.30;82.00
9951;DHT22;24074;49.254;6.702;2024-03-06T12:01:46;13.90;82.10
9951;DHT22;24074;49.254;6.702;2024-03-06T12:04:11;14.30;84.00
9951;DHT22;24074;49.254;6.702;2024-03-06T12:06:38;14.60;82.80
9951;DHT22;24074;49.254;6.702;2024-03-06T12:09:04;14.30;81.00
9951;DHT22;24074;49.254;6.702;2024-03-06T12:11:30;13.70;82.20
9951;DHT22;24074;49.254;6.702;2024-03-06T12:13:56;13.70;84.00
9951;DHT22;24074;49.254;6.702;2024-03-06T12:16:22;13.70;82.70
9951;DHT22;24074;49.254;6.702;2024-03-06T12:18:58;13.40;83.90
9951;DHT22;24074;49.254;6.702;2024-03-06T12:21:33;13.50;84.40
9951;DHT22;24074;49.254;6.702;2024-03-06T12:24:08;13.50;84.10
9951;DHT22;24074;49.254;6.702;2024-03-06T12:26:36;13.60;82.50
9951;DHT22;24074;49.254;6.702;2024-03-06T12:29:09;13.90;82.20
9951;DHT22;24074;49.254;6.702;2024-03-06T12:31:36;14.50;81.20
9951;DHT22;24074;49.254;6.702;2024-03-06T12:34:02;14.30;82.90
9951;DHT22;24074;49.254;6.702;2024-03-06T12:36:28;14.90;81.20
9951;DHT22;24074;49.254;6.702;2024-03-06T12:38:56;15.20;81.40
9951;DHT22;24074;49.254;6.702;2024-03-06T12:41:22;15.50;82.40
9951;DHT22;24074;49.254;6.702;2024-03-06T12:43:47;15.40;77.60
9951;DHT22;24074;49.254;6.702;2024-03-06T12:46:13;15.90;78.00
9951;DHT22;24074;49.254;6.702;2024-03-06T12:48:39;15.90;77.20
9951;DHT22;24074;49.254;6.702;2024-03-06T12:51:04;15.80;76.00
9951;DHT22;24074;49.254;6.702;2024-03-06T12:53:30;15.70;75.70
9951;DHT22;24074;49.254;6.702;2024-03-06T12:55:57;15.50;76.30
9951;DHT22;24074;49.254;6.702;2024-03-06T12:58:22;15.40;76.20
9951;DHT22;24074;49.254;6.702;2024-03-06T13:00:48;14.90;77.20
9951;DHT22;24074;49.254;6.702;2024-03-06T13:03:13;14.90;77.70
9951;DHT22;24074;49.254;6.702;2024-03-06T13:05:39;14.70;78.10
9951;DHT22;24074;49.254;6.702;2024-03-06T13:08:05;14.50;76.60
9951;DHT22;24074;49.254;6.702;2024-03-06T13:10:31;13.90;78.20
9951;DHT22;24074;49.254;6.702;2024-03-06T13:12:57;14.00;78.20
9951;DHT22;24074;49.254;6.702;2024-03-06T13:15:22;13.90;78.10
9951;DHT22;24074;49.254;6.702;2024-03-06T13:17:48;14.30;77.40
9951;DHT22;24074;49.254;6.702;2024-03-06T13:20:16;14.40;76.70
9951;DHT22;24074;49.254;6.702;2024-03-06T13:22:42;14.40;76.90
9951;DHT22;24074;49.254;6.702;2024-03-06T13:25:09;14.60;73.90
9951;DHT22;24074;49.254;6.702;2024-03-06T13:27:35;14.40;73.80
9951;DHT22;24074;49.254;6.702;2024-03-06T13:30:00;14.40;73.40
9951;DHT22;24074;49.254;6.702;2024-03-06T13:32:26;14.30;73.20
9951;DHT22;24074;49.254;6.702;2024-03-06T13:34:52;14.40;72.30
9951;DHT22;24074;49.254;6.702;2024-03-06T13:37:18;14.10;71.40
9951;DHT22;24074;49.254;6.702;2024-03-06T13:39:43;14.00;70.90
9951;DHT22;24074;49.254;6.702;2024-03-06T13:42:09;13.90;70.60
9951;DHT22;24074;49.254;6.702;2024-03-06T13:44:35;14.10;70.70
9951;DHT22;24074;49.254;6.702;2024-03-06T13:47:02;14.30;71.70
9951;DHT22;24074;49.254;6.702;2024-03-06T13:49:41;14.40;73.10
9951;DHT22;24074;49.254;6.702;2024-03-06T13:52:07;14.20;74.20
9951;DHT22;24074;49.254;6.702;2024-03-06T13:54:37;13.90;73.40
9951;DHT22;24074;49.254;6.702;2024-03-06T13:57:03;13.80;73.50
9951;DHT22;24074;49.254;6.702;2024-03-06T13:59:32;13.60;74.30
9951;DHT22;24074;49.254;6.702;2024-03-06T14:01:58;13.60;74.80
9951;DHT22;24074;49.254;6.702;2024-03-06T14:04:24;13.60;74.50
9951;DHT22;24074;49.254;6.702;2024-03-06T14:06:50;13.70;74.40
9951;DHT22;24074;49.254;6.702;2024-03-06T14:09:16;13.70;75.60
9951;DHT22;24074;49.254;6.702;2024-03-06T14:11:41;13.70;75.40
9951;DHT22;24074;49.254;6.702;2024-03-06T14:14:07;13.60;75.70
9951;DHT22;24074;49.254;6.702;2024-03-06T14:16:34;13.60;75.00
9951;DHT22;24074;49.254;6.702;2024-03-06T14:19:00;13.50;74.20
9951;DHT22;24074;49.254;6.702;2024-03-06T14:21:25;13.60;73.10
9951;DHT22;24074;49.254;6.702;2024-03-06T14:23:51;13.50;73.50
9951;DHT22;24074;49.254;6.702;2024-03-06T14:26:17;13.20;72.90
9951;DHT22;24074;49.254;6.702;2024-03-06T14:28:43;13.20;73.70
9951;DHT22;24074;49.254;6.702;2024-03-06T14:31:08;13.30;75.10
9951;DHT22;24074;49.254;6.702;2024-03-06T14:33:39;13.50;74.30
9951;DHT22;24074;49.254;6.702;2024-03-06T14:36:05;13.40;73.60
9951;DHT22;24074;49.254;6.702;2024-03-06T14:38:34;13.40;72.50
9951;DHT22;24074;49.254;6.702;2024-03-06T14:41:00;13.20;72.90
9951;DHT22;24074;49.254;6.702;2024-03-06T14:43:25;13.30;74.10
9951;DHT22;24074;49.254;6.702;2024-03-06T14:45:51;13.30;72.40
9951;DHT22;24074;49.254;6.702;2024-03-06T14:48:17;13.20;74.70
9951;DHT22;24074;49.254;6.702;2024-03-06T14:50:43;13.40;74.20
9951;DHT22;24074;49.254;6.702;2024-03-06T14:53:08;13.50;74.10
9951;DHT22;24074;49.254;6.702;2024-03-06T14:55:34;13.40;74.00
9951;DHT22;24074;49.254;6.702;2024-03-06T14:58:00;13.20;74.20
9951;DHT22;24074;49.254;6.702;2024-03-06T15:00:26;13.50;74.40
9951;DHT22;24074;49.254;6.702;2024-03-06T15:02:52;13.60;75.80
9951;DHT22;24074;49.254;6.702;2024-03-06T15:05:17;13.90;73.60
9951;DHT22;24074;49.254;6.702;2024-03-06T15:07:43;14.10;73.60
9951;DHT22;24074;49.254;6.702;2024-03-06T15:10:09;14.30;72.20
9951;DHT22;24074;49.254;6.702;2024-03-06T15:12:35;14.30;71.80
9951;DHT22;24074;49.254;6.702;2024-03-06T15:15:03;14.20;71.20
9951;DHT22;24074;49.254;6.702;2024-03-06T15:17:32;14.00;71.20
9951;DHT22;24074;49.254;6.702;2024-03-06T15:19:58;13.70;69.10
9951;DHT22;24074;49.254;6.702;2024-03-06T15:22:27;13.20;71.80
9951;DHT22;24074;49.254;6.702;2024-03-06T15:24:52;13.00;72.70
9951;DHT22;24074;49.254;6.702;2024-03-06T15:27:19;13.00;76.00
9951;DHT22;24074;49.254;6.702;2024-03-06T15:29:45;12.60;78.00
9951;DHT22;24074;49.254;6.702;2024-03-06T15:32:10;12.60;78.60
9951;DHT22;24074;49.254;6.702;2024-03-06T15:34:36;12.50;79.80
9951;DHT22;24074;49.254;6.702;2024-03-06T15:37:02;12.40;79.10
9951;DHT22;24074;49.254;6.702;2024-03-06T15:39:28;12.30;81.60
9951;DHT22;24074;49.254;6.702;2024-03-06T15:41:54;12.30;82.40
9951;DHT22;24074;49.254;6.702;2024-03-06T15:44:21;12.20;82.90
9951;DHT22;24074;49.254;6.702;2024-03-06T15:46:47;12.20;84.20
9951;DHT22;24074;49.254;6.702;2024-03-06T15:49:23;12.20;84.40
9951;DHT22;24074;49.254;6.702;2024-03-06T15:51:52;12.10;84.90
9951;DHT22;24074;49.254;6.702;2024-03-06T15:54:19;12.10;85.20
9951;DHT22;24074;49.254;6.702;2024-03-06T15:56:48;12.10;84.20
9951;DHT22;24074;49.254;6.702;2024-03-06T15:59:13;12.10;83.70
9951;DHT22;24074;49.254;6.702;2024-03-06T16:01:39;12.10;83.70
9951;DHT22;24074;49.254;6.702;2024-03-06T16:04:04;11.80;85.20
9951;DHT22;24074;49.254;6.702;2024-03-06T16:06:30;11.80;85.70
9951;DHT22;24074;49.254;6.702;2024-03-06T16:08:57;11.70;86.10
9951;DHT22;24074;49.254;6.702;2024-03-06T16:11:25;11.60;86.70